Time;durP1;ratioP1;P1;durP2;ratioP2;P2;SDS_P1;SDS_P2;PMS_P1;PMS_P2;Temp;Humidity;BMP_temperature;BMP_pressure;BME280_temperature;BME280_humidity;BME280_pressure;Samples;Min_cycle;Max_cycle;Signal;HPM_P1;HPM_P2
2022/06/05 00:00:06;;;;;;;;;35.50;32.25;;;;;18.99;100.00;101105.41;5060565;28;45260;-65
2022/06/05 00:02:51;;;;;;;;;40.75;33.00;;;;;19.00;100.00;101095.72;5065707;28;45361;-66
2022/06/05 00:05:31;;;;;;;;;35.50;31.00;;;;;18.95;100.00;101085.44;5057150;28;45570;-65
2022/06/05 00:08:26;;;;;;;;;27.75;25.75;;;;;18.94;100.00;101090.81;5065579;28;45324;-65
2022/06/05 00:10:55;;;;;;;;;24.50;20.75;;;;;18.91;100.00;101091.84;5054805;28;45284;-66
2022/06/05 00:13:26;;;;;;;;;26.25;24.25;;;;;18.93;100.00;101103.13;5066092;28;45272;-64
2022/06/05 00:15:52;;;;;;;;;28.00;24.25;;;;;18.92;100.00;101101.44;5065935;28;45477;-65
2022/06/05 00:18:17;;;;;;;;;26.00;22.00;;;;;18.92;100.00;101097.94;5065887;28;46366;-65
2022/06/05 00:20:44;;;;;;;;;29.00;24.75;;;;;18.95;100.00;101103.88;5065919;28;45373;-65
2022/06/05 00:23:11;;;;;;;;;24.75;23.75;;;;;18.94;100.00;101096.91;5064713;28;45403;-64
2022/06/05 00:26:21;;;;;;;;;21.50;21.00;;;;;18.95;100.00;101097.75;5065905;28;45372;-64
2022/06/05 00:29:10;;;;;;;;;22.50;18.00;;;;;18.96;100.00;101102.94;5048420;28;48317;-67
2022/06/05 00:31:47;;;;;;;;;24.75;21.75;;;;;18.94;100.00;101104.81;5059538;28;45793;-66
2022/06/05 00:34:15;;;;;;;;;21.75;21.25;;;;;18.90;100.00;101095.41;5065412;28;45437;-66
2022/06/05 00:37:02;;;;;;;;;22.25;17.25;;;;;18.82;100.00;101087.94;5065196;28;45264;-66
2022/06/05 00:39:50;;;;;;;;;20.50;17.50;;;;;18.82;100.00;101079.16;5065549;28;46226;-66
2022/06/05 00:42:19;;;;;;;;;20.00;18.00;;;;;18.80;100.00;101073.13;5065377;28;45464;-67
2022/06/05 00:44:51;;;;;;;;;20.50;18.00;;;;;18.82;100.00;101073.91;5061940;28;45337;-67
2022/06/05 00:47:20;;;;;;;;;21.50;18.75;;;;;18.83;100.00;101060.66;5086891;27;45755;-67
2022/06/05 00:49:50;;;;;;;;;20.25;17.75;;;;;18.85;100.00;101055.31;5063167;28;45568;-67
2022/06/05 00:52:17;;;;;;;;;21.00;17.50;;;;;18.85;100.00;101044.78;5062721;28;45312;-66
2022/06/05 00:54:42;;;;;;;;;22.25;17.75;;;;;18.80;100.00;101039.75;5051603;28;45605;-66
2022/06/05 00:57:11;;;;;;;;;19.25;18.50;;;;;18.77;100.00;101053.09;5062996;28;45516;-66
2022/06/05 00:59:38;;;;;;;;;17.00;15.00;;;;;18.77;100.00;101050.47;5062940;28;46559;-66
2022/06/05 01:02:05;;;;;;;;;20.50;18.00;;;;;18.79;100.00;101058.28;5059336;28;45552;-66
2022/06/05 01:04:32;;;;;;;;;21.00;19.50;;;;;18.79;100.00;101063.53;5065000;28;45711;-66
2022/06/05 01:06:57;;;;;;;;;16.75;13.75;;;;;18.80;100.00;101062.59;5064097;28;45322;-66
2022/06/05 01:09:23;;;;;;;;;14.25;13.50;;;;;18.78;100.00;101073.22;5061374;28;46875;-66
2022/06/05 01:12:04;;;;;;;;;16.50;15.00;;;;;18.72;100.00;101075.38;5059268;28;45617;-65
2022/06/05 01:14:35;;;;;;;;;16.00;13.00;;;;;18.72;100.00;101055.16;5059593;28;45394;-65
2022/06/05 01:17:27;;;;;;;;;20.25;17.75;;;;;18.71;100.00;101050.81;5059524;28;45423;-65
2022/06/05 01:20:04;;;;;;;;;18.00;17.00;;;;;18.72;100.00;101043.78;5059363;28;45626;-66
2022/06/05 01:22:57;;;;;;;;;16.00;16.00;;;;;18.75;100.00;101035.69;5060081;28;45820;-65
2022/06/05 01:25:48;;;;;;;;;21.00;18.00;;;;;18.77;100.00;101039.94;5062020;28;45205;-65
2022/06/05 01:28:23;;;;;;;;;16.75;16.25;;;;;18.76;100.00;101024.22;5061688;28;45465;-65
2022/06/05 01:30:58;;;;;;;;;19.00;17.25;;;;;18.74;100.00;101011.16;5061300;28;45365;-65
2022/06/05 01:33:27;;;;;;;;;17.75;17.25;;;;;18.72;100.00;100991.13;5059661;28;45462;-64
2022/06/05 01:35:58;;;;;;;;;14.25;14.25;;;;;18.72;100.00;100991.97;5061544;28;45489;-66
2022/06/05 01:38:46;;;;;;;;;18.00;18.00;;;;;18.66;100.00;100980.94;5061416;28;45395;-66
2022/06/05 01:41:18;;;;;;;;;16.00;15.25;;;;;18.65;100.00;100979.25;5061730;28;46581;-66
2022/06/05 01:43:49;;;;;;;;;18.00;16.75;;;;;18.67;100.00;100982.63;5061283;28;45300;-66
2022/06/05 01:46:19;;;;;;;;;17.50;14.50;;;;;18.65;100.00;100976.63;5061440;28;45339;-66
2022/06/05 01:48:55;;;;;;;;;16.50;15.50;;;;;18.64;100.00;100967.03;5061290;28;45589;-66
2022/06/05 01:51:34;;;;;;;;;19.50;17.50;;;;;18.64;100.00;100956.50;5061348;28;45400;-65
2022/06/05 01:54:07;;;;;;;;;17.00;15.25;;;;;18.64;100.00;100957.34;5061380;28;45675;-65
2022/06/05 01:56:43;;;;;;;;;17.75;15.50;;;;;18.64;100.00;100951.22;5061443;28;45463;-66
2022/06/05 01:59:22;;;;;;;;;17.75;16.00;;;;;18.63;100.00;100953.00;5061341;28;45446;-66
2022/06/05 02:01:53;;;;;;;;;19.00;17.00;;;;;18.61;100.00;100956.59;5060973;28;46387;-65
2022/06/05 02:04:24;;;;;;;;;15.25;15.00;;;;;18.58;100.00;100951.53;5061474;28;45579;-65
2022/06/05 02:07:02;;;;;;;;;21.25;17.50;;;;;18.59;100.00;100950.59;5050247;28;45435;-65
2022/06/05 02:09:42;;;;;;;;;17.50;14.50;;;;;18.57;100.00;100934.88;5056788;28;45319;-64
2022/06/05 02:12:09;;;;;;;;;16.50;14.25;;;;;18.54;100.00;100928.03;5057640;28;45438;-65
2022/06/05 02:14:35;;;;;;;;;20.00;18.25;;;;;18.53;100.00;100923.69;5060756;28;45429;-65
2022/06/05 02:17:04;;;;;;;;;22.50;18.00;;;;;18.55;100.00;100916.56;5061190;28;45337;-65
2022/06/05 02:19:29;;;;;;;;;20.75;20.00;;;;;18.56;100.00;100927.94;5060900;28;45281;-65
2022/06/05 02:22:07;;;;;;;;;25.50;22.75;;;;;18.55;100.00;100923.59;5060206;28;46267;-65
2022/06/05 02:24:32;;;;;;;;;20.75;18.25;;;;;18.53;100.00;100912.31;5059872;28;45213;-64
2022/06/05 02:27:00;;;;;;;;;20.75;20.25;;;;;18.52;100.00;100919.38;5060966;28;45363;-64
2022/06/05 02:29:26;;;;;;;;;23.25;22.00;;;;;18.52;100.00;100921.16;5060587;28;45350;-64
2022/06/05 02:32:10;;;;;;;;;21.50;21.50;;;;;18.52;100.00;100922.00;5060400;28;45348;-64
2022/06/05 02:35:02;;;;;;;;;25.25;20.75;;;;;18.48;100.00;100924.91;5055272;28;45529;-64
2022/06/05 02:37:39;;;;;;;;;23.50;20.75;;;;;18.44;100.00;100926.03;5059231;28;45335;-65
2022/06/05 02:40:36;;;;;;;;;24.50;22.00;;;;;18.42;100.00;100918.22;5060795;28;45378;-65
2022/06/05 02:43:06;;;;;;;;;22.25;20.00;;;;;18.41;100.00;100913.84;5050954;28;45513;-64
2022/06/05 02:45:59;;;;;;;;;22.50;19.00;;;;;18.38;100.00;100913.19;5058895;28;45606;-64
2022/06/05 02:48:41;;;;;;;;;25.00;19.75;;;;;18.34;100.00;100903.78;5060106;28;46410;-64
2022/06/05 02:51:24;;;;;;;;;21.50;21.25;;;;;18.35;100.00;100895.81;5067606;28;45454;-65
2022/06/05 02:53:54;;;;;;;;;27.00;21.00;;;;;18.30;100.00;100891.75;5060105;28;46291;-66
2022/06/05 02:56:21;;;;;;;;;20.75;19.00;;;;;18.27;100.00;100895.41;5060374;28;45776;-65
2022/06/05 02:58:49;;;;;;;;;18.75;18.00;;;;;18.23;100.00;100897.38;5060092;28;45209;-65
2022/06/05 03:03:59;;;;;;;;;19.75;18.75;;;;;18.15;100.00;100896.09;5051499;28;45360;-64
2022/06/05 03:06:24;;;;;;;;;21.50;17.00;;;;;18.08;100.00;100905.25;5059686;28;45502;-65
2022/06/05 03:08:50;;;;;;;;;15.00;15.00;;;;;18.06;100.00;100912.41;5060352;28;45448;-65
2022/06/05 03:11:15;;;;;;;;;19.50;18.75;;;;;18.01;100.00;100912.63;5060012;28;45244;-65
2022/06/05 03:13:40;;;;;;;;;15.00;14.00;;;;;17.99;100.00;100905.75;5060170;28;45437;-65
2022/06/05 03:16:08;;;;;;;;;21.50;21.00;;;;;17.97;100.00;100907.63;5057292;28;45307;-66
2022/06/05 03:18:33;;;;;;;;;21.25;17.25;;;;;17.98;100.00;100914.59;5060317;28;45232;-66
2022/06/05 03:20:59;;;;;;;;;19.25;17.25;;;;;17.98;100.00;100919.84;5059918;28;45436;-66
2022/06/05 03:23:26;;;;;;;;;22.00;18.00;;;;;17.98;100.00;100915.44;5058871;28;46163;-66
2022/06/05 03:25:52;;;;;;;;;19.50;18.50;;;;;18.02;100.00;100911.72;5060076;28;45303;-63
2022/06/05 03:28:17;;;;;;;;;17.50;17.00;;;;;18.06;100.00;100917.66;5060084;28;45225;-64
2022/06/05 03:30:43;;;;;;;;;20.00;16.75;;;;;18.06;100.00;100913.25;5059790;28;45424;-63
2022/06/05 03:33:10;;;;;;;;;15.50;13.50;;;;;18.06;100.00;100920.28;5059666;28;45403;-63
2022/06/05 03:35:41;;;;;;;;;17.25;16.50;;;;;18.06;100.00;100923.75;5058858;28;45735;-64
2022/06/05 03:38:07;;;;;;;;;16.25;15.00;;;;;18.07;100.00;100917.56;5059650;28;45275;-64
2022/06/05 03:40:33;;;;;;;;;15.00;12.50;;;;;18.06;100.00;100928.19;5059477;28;45315;-64
2022/06/05 03:42:59;;;;;;;;;15.50;12.50;;;;;18.08;100.00;100926.31;5056073;28;46664;-64
2022/06/05 03:45:25;;;;;;;;;16.50;14.75;;;;;18.04;100.00;100925.63;5056056;28;45754;-64
2022/06/05 03:47:50;;;;;;;;;15.50;12.50;;;;;18.03;100.00;100928.34;5059066;28;45450;-64
2022/06/05 03:50:17;;;;;;;;;18.50;16.50;;;;;18.02;100.00;100926.63;5056535;28;45423;-64
2022/06/05 03:52:43;;;;;;;;;14.00;13.50;;;;;18.01;100.00;100935.44;5055581;28;46023;-64
2022/06/05 03:55:12;;;;;;;;;16.00;15.00;;;;;17.98;100.00;100931.22;5056232;28;45382;-64
2022/06/05 03:57:37;;;;;;;;;19.75;16.00;;;;;17.98;100.00;100940.88;5056212;28;45475;-64
2022/06/05 04:00:05;;;;;;;;;17.00;17.00;;;;;18.00;100.00;100942.50;5058761;28;45510;-64
2022/06/05 04:02:31;;;;;;;;;13.00;12.25;;;;;18.01;100.00;100949.44;5058764;28;46039;-64
2022/06/05 04:04:58;;;;;;;;;14.50;14.00;;;;;18.03;100.00;100957.28;5055794;28;45384;-64
2022/06/05 04:07:24;;;;;;;;;13.25;13.00;;;;;18.09;100.00;100970.09;5053306;28;45300;-64
2022/06/05 04:09:49;;;;;;;;;16.75;15.50;;;;;18.07;100.00;100971.94;5056378;28;45284;-65
2022/06/05 04:12:14;;;;;;;;;15.50;13.75;;;;;18.08;100.00;100969.22;5050324;28;46399;-64
2022/06/05 04:14:40;;;;;;;;;16.00;14.50;;;;;18.10;100.00;100964.72;5058933;28;45208;-65
2022/06/05 04:17:05;;;;;;;;;17.25;14.00;;;;;18.13;100.00;100967.19;5059317;28;45675;-64
2022/06/05 04:19:30;;;;;;;;;14.50;13.50;;;;;18.17;100.00;100967.88;5059065;28;45499;-66
2022/06/05 04:21:56;;;;;;;;;15.25;13.75;;;;;18.27;100.00;100978.75;5056645;28;45364;-65
2022/06/05 04:24:21;;;;;;;;;16.25;13.75;;;;;18.30;100.00;100975.94;5057856;28;45212;-64
2022/06/05 04:26:46;;;;;;;;;14.25;14.00;;;;;18.36;100.00;100983.47;5058519;28;45149;-65
2022/06/05 04:29:12;;;;;;;;;14.75;11.25;;;;;18.40;100.00;100992.88;5058472;28;45569;-66
2022/06/05 04:31:44;;;;;;;;;15.25;12.00;;;;;18.42;100.00;100989.25;5057950;28;46500;-65
2022/06/05 04:34:11;;;;;;;;;15.50;14.50;;;;;18.47;100.00;100991.63;5058268;28;45288;-65
2022/06/05 04:36:36;;;;;;;;;13.25;11.75;;;;;18.47;100.00;100994.25;5053488;28;45359;-65
2022/06/05 04:39:03;;;;;;;;;14.50;12.25;;;;;18.48;100.00;101004.69;5055741;28;45246;-65
2022/06/05 04:41:29;;;;;;;;;14.75;13.25;;;;;18.52;100.00;101003.59;5058467;28;45525;-65
2022/06/05 04:43:56;;;;;;;;;17.00;13.00;;;;;18.59;100.00;101009.34;5082088;27;45720;-65
2022/06/05 04:46:23;;;;;;;;;17.25;15.75;;;;;18.67;100.00;101016.88;5059959;28;45312;-65
2022/06/05 04:48:49;;;;;;;;;16.00;13.50;;;;;18.71;100.00;101023.66;5062156;28;45272;-65
2022/06/05 04:51:15;;;;;;;;;14.75;13.00;;;;;18.79;100.00;101024.03;5061917;28;45551;-67
2022/06/05 04:53:42;;;;;;;;;14.00;13.25;;;;;18.87;100.00;101031.53;5060454;28;45207;-66
2022/06/05 04:56:14;;;;;;;;;15.00;13.75;;;;;18.91;100.00;101018.09;5053191;28;45762;-66
2022/06/05 04:58:40;;;;;;;;;17.50;15.25;;;;;18.98;100.00;101026.47;5058771;28;45465;-67
2022/06/05 05:01:18;;;;;;;;;12.75;12.50;;;;;19.03;100.00;101027.94;5062072;28;45319;-68
2022/06/05 05:03:44;;;;;;;;;17.75;15.50;;;;;19.11;100.00;101025.69;5056226;28;45550;-68
2022/06/05 05:06:10;;;;;;;;;14.00;13.00;;;;;19.17;100.00;101040.28;5059027;28;45488;-67
2022/06/05 05:08:36;;;;;;;;;17.00;15.25;;;;;19.25;100.00;101039.84;5061599;28;45414;-66
2022/06/05 05:11:02;;;;;;;;;14.50;14.25;;;;;19.31;100.00;101035.06;5061761;28;46567;-49
2022/06/05 05:13:28;;;;;;;;;18.50;16.00;;;;;19.40;100.00;101031.84;5061597;28;45407;-50
2022/06/05 05:15:55;;;;;;;;;15.75;12.50;;;;;19.49;100.00;101032.25;5062125;28;45268;-49
2022/06/05 05:18:21;;;;;;;;;19.75;16.25;;;;;19.55;100.00;101024.84;5062068;28;45422;-52
2022/06/05 05:20:47;;;;;;;;;17.75;17.75;;;;;19.61;100.00;101027.13;5061941;28;45522;-51
2022/06/05 05:23:12;;;;;;;;;18.75;17.25;;;;;19.68;100.00;101033.72;5060736;28;45503;-51
2022/06/05 05:25:38;;;;;;;;;17.75;15.75;;;;;19.73;100.00;101028.16;5061982;28;45461;-51
2022/06/05 05:28:06;;;;;;;;;16.75;15.25;;;;;19.80;100.00;101023.34;5060342;28;45519;-49
2022/06/05 05:30:32;;;;;;;;;16.50;15.75;;;;;19.88;100.00;101021.13;5056369;28;47151;-49
2022/06/05 05:32:57;;;;;;;;;16.00;16.00;;;;;19.97;100.00;101016.09;5061407;28;45898;-49
2022/06/05 05:35:23;;;;;;;;;19.00;15.00;;;;;20.02;100.00;101027.25;5061580;28;45357;-48
2022/06/05 05:37:48;;;;;;;;;16.00;14.25;;;;;20.13;100.00;101021.28;5051165;28;45351;-50
2022/06/05 05:42:58;;;;;;;;;15.25;13.75;;;;;20.43;100.00;101034.38;5052892;28;45395;-51
2022/06/05 05:45:23;;;;;;;;;17.50;15.75;;;;;20.60;100.00;101041.19;5061504;28;45316;-49
2022/06/05 05:47:50;;;;;;;;;13.75;13.75;;;;;20.70;100.00;101033.53;5061496;28;45165;-48
2022/06/05 05:50:16;;;;;;;;;14.25;14.00;;;;;20.72;100.00;101036.91;5061242;28;46757;-49
2022/06/05 05:52:42;;;;;;;;;17.75;15.00;;;;;20.74;100.00;101043.78;5061192;28;45200;-48
2022/06/05 05:55:17;;;;;;;;;18.75;16.75;;;;;20.76;100.00;101041.91;5061611;28;45557;-50
2022/06/05 05:57:43;;;;;;;;;19.00;17.75;;;;;20.81;100.00;101034.50;5060784;28;45528;-47
2022/06/05 06:00:12;;;;;;;;;12.75;11.50;;;;;20.83;100.00;101037.06;5061107;28;45367;-49
2022/06/05 06:02:38;;;;;;;;;14.50;14.50;;;;;20.85;100.00;101032.53;5061388;28;45464;-50
2022/06/05 06:05:05;;;;;;;;;17.50;16.75;;;;;20.85;100.00;101030.75;5053784;28;45356;-49
2022/06/05 06:07:31;;;;;;;;;15.00;15.00;;;;;20.77;100.00;101027.75;5063652;28;45276;-48
2022/06/05 06:09:56;;;;;;;;;18.25;16.00;;;;;20.86;100.00;101023.66;5060811;28;45315;-57
2022/06/05 06:12:24;;;;;;;;;15.75;11.25;;;;;20.86;100.00;101026.31;5059372;28;45286;-57
2022/06/05 06:14:50;;;;;;;;;10.50;10.50;;;;;20.83;100.00;101019.44;5060272;28;45360;-58
2022/06/05 06:17:16;;;;;;;;;12.75;12.75;;;;;20.84;100.00;101021.13;5059645;28;45464;-58
2022/06/05 06:19:41;;;;;;;;;15.25;11.25;;;;;20.88;100.00;101013.84;5060777;28;45402;-57
2022/06/05 06:22:07;;;;;;;;;16.00;13.00;;;;;20.94;100.00;101014.28;5060846;28;45297;-57
2022/06/05 06:24:33;;;;;;;;;26.50;24.75;;;;;20.94;100.00;101019.56;5060157;28;45415;-57
2022/06/05 06:26:58;;;;;;;;;14.25;13.75;;;;;20.99;100.00;101003.38;5060940;28;45541;-58
2022/06/05 06:29:23;;;;;;;;;14.50;13.00;;;;;21.09;100.00;101009.75;5060686;28;46483;-57
2022/06/05 06:31:49;;;;;;;;;17.25;13.00;;;;;21.19;100.00;101008.19;5060797;28;45178;-57
2022/06/05 06:34:14;;;;;;;;;19.75;14.75;;;;;21.31;100.00;101009.19;5059619;28;45462;-58
2022/06/05 06:36:40;;;;;;;;;14.00;12.75;;;;;21.42;100.00;101000.50;5060274;28;45391;-58
2022/06/05 06:39:06;;;;;;;;;19.00;16.25;;;;;21.52;100.00;101007.72;5060484;28;45441;-58
2022/06/05 06:41:32;;;;;;;;;20.50;15.50;;;;;21.62;100.00;101012.38;5060566;28;45430;-58
2022/06/05 06:43:58;;;;;;;;;17.00;15.25;;;;;21.69;100.00;101001.28;5060320;28;45468;-58
2022/06/05 06:46:23;;;;;;;;;16.50;13.75;;;;;21.70;100.00;101002.13;5060799;28;45491;-58
2022/06/05 06:48:48;;;;;;;;;11.00;11.00;;;;;21.78;100.00;100997.97;5060213;28;45719;-58
2022/06/05 06:51:16;;;;;;;;;12.25;12.00;;;;;21.89;100.00;100997.22;5060433;28;45276;-58
2022/06/05 06:53:42;;;;;;;;;14.50;13.25;;;;;21.98;100.00;100995.72;5057480;28;45498;-58
2022/06/05 06:56:12;;;;;;;;;17.50;13.00;;;;;22.07;100.00;100997.75;5053538;28;45379;-58
2022/06/05 06:58:39;;;;;;;;;18.50;15.00;;;;;22.15;100.00;100992.75;5060152;28;46521;-58
2022/06/05 07:01:04;;;;;;;;;19.00;16.75;;;;;22.28;100.00;100992.72;5060294;28;45284;-58
2022/06/05 07:03:30;;;;;;;;;20.25;15.25;;;;;22.38;100.00;100978.69;5060260;28;45359;-58
2022/06/05 07:05:56;;;;;;;;;17.00;15.00;;;;;22.49;100.00;100992.97;5056860;28;45331;-58
2022/06/05 07:08:21;;;;;;;;;16.50;15.00;;;;;22.62;100.00;100985.78;5058822;28;45386;-58
2022/06/05 07:10:47;;;;;;;;;16.25;15.50;;;;;22.66;100.00;100985.47;5059837;28;45386;-58
2022/06/05 07:13:12;;;;;;;;;14.00;14.00;;;;;22.54;100.00;100985.50;5048353;28;45297;-58
2022/06/05 07:15:39;;;;;;;;;17.25;15.25;;;;;22.36;100.00;100990.34;5060231;28;45249;-58
2022/06/05 07:18:06;;;;;;;;;14.00;11.00;;;;;22.22;100.00;100986.03;5059899;28;47024;-58
2022/06/05 07:20:36;;;;;;;;;17.25;15.25;;;;;22.14;100.00;100985.75;5058980;28;45461;-57
2022/06/05 07:23:02;;;;;;;;;15.25;15.25;;;;;22.07;100.00;100982.72;5058958;28;45289;-58
2022/06/05 07:25:29;;;;;;;;;15.25;15.00;;;;;22.10;100.00;100985.13;5060007;28;45667;-58
2022/06/05 07:27:54;;;;;;;;;19.00;14.50;;;;;22.03;100.00;100975.94;5059669;28;46387;-57
2022/06/05 07:30:20;;;;;;;;;15.50;14.75;;;;;22.05;100.00;100975.84;5059909;28;45271;-58
2022/06/05 07:32:47;;;;;;;;;14.25;14.25;;;;;22.07;100.00;100977.44;5056189;28;45194;-57
2022/06/05 07:35:13;;;;;;;;;12.00;11.50;;;;;22.19;100.00;100983.63;5053113;28;45239;-58
2022/06/05 07:37:39;;;;;;;;;15.00;12.75;;;;;22.19;100.00;100980.13;5055302;28;46508;-57
2022/06/05 07:40:05;;;;;;;;;20.25;15.50;;;;;22.15;100.00;100971.56;5047985;28;45433;-57
2022/06/05 07:42:30;;;;;;;;;17.00;15.25;;;;;22.10;100.00;100979.84;5059662;28;45416;-57
2022/06/05 07:44:55;;;;;;;;;14.25;12.00;;;;;22.06;100.00;100982.84;5059759;28;45438;-57
2022/06/05 07:47:21;;;;;;;;;14.50;13.50;;;;;22.21;100.00;100975.56;5059652;28;45399;-57
2022/06/05 07:49:46;;;;;;;;;9.50;8.75;;;;;22.33;100.00;100977.34;5059724;28;45340;-57
2022/06/05 07:54:55;;;;;;;;;11.75;11.25;;;;;22.40;100.00;100967.97;5059783;28;45454;-57
2022/06/05 07:57:20;;;;;;;;;12.75;11.00;;;;;22.59;100.00;100976.25;5059508;28;46375;-58
2022/06/05 07:59:48;;;;;;;;;10.25;9.25;;;;;22.59;100.00;100978.91;5059641;28;45472;-57
2022/06/05 08:02:20;;;;;;;;;12.75;11.25;;;;;22.60;100.00;100975.28;5059737;28;45339;-58
2022/06/05 08:04:46;;;;;;;;;15.00;13.25;;;;;22.71;100.00;100991.25;5059329;28;45459;-58
2022/06/05 08:07:14;;;;;;;;;13.00;12.00;;;;;22.76;100.00;100985.59;5059006;28;46534;-58
2022/06/05 08:09:41;;;;;;;;;10.75;9.00;;;;;22.91;100.00;100986.31;5057498;28;45244;-58
2022/06/05 08:12:08;;;;;;;;;11.00;10.00;;;;;23.09;100.00;100994.69;5058324;28;45224;-58
2022/06/05 08:14:35;;;;;;;;;12.00;11.75;;;;;23.05;95.72;100999.38;5059420;28;45496;-58
2022/06/05 08:17:04;;;;;;;;;9.00;9.00;;;;;23.01;98.74;101001.38;5050853;28;46381;-58
2022/06/05 08:19:30;;;;;;;;;11.50;9.50;;;;;23.05;100.00;101005.53;5056668;28;45624;-58
2022/06/05 08:21:55;;;;;;;;;11.00;8.25;;;;;23.10;100.00;100993.72;5062392;28;45228;-58
2022/06/05 08:24:21;;;;;;;;;10.00;8.50;;;;;23.23;100.00;101008.59;5091443;27;45559;-58
2022/06/05 08:26:47;;;;;;;;;8.50;7.75;;;;;23.36;100.00;101009.31;5059400;28;46332;-58
2022/06/05 08:29:13;;;;;;;;;11.75;8.75;;;;;23.43;100.00;101009.72;5062125;28;45565;-58
2022/06/05 08:31:38;;;;;;;;;11.25;10.25;;;;;23.39;100.00;101010.88;5062773;28;45485;-58
2022/06/05 08:34:05;;;;;;;;;9.00;9.00;;;;;23.35;100.00;101012.94;5062673;28;45458;-58
2022/06/05 08:36:32;;;;;;;;;10.25;9.00;;;;;23.30;100.00;101009.78;5058714;28;46335;-71
2022/06/05 08:41:51;;;;;;;;;7.75;7.75;;;;;23.19;100.00;101015.06;5062797;28;45466;-75
2022/06/05 08:44:24;;;;;;;;;10.00;10.00;;;;;23.10;98.87;101023.72;5059831;28;45524;-76
2022/06/05 08:46:58;;;;;;;;;9.50;7.75;;;;;23.05;95.10;101025.88;5061830;28;46525;-71
2022/06/05 08:49:32;;;;;;;;;12.50;9.75;;;;;22.99;96.63;101028.97;5058377;28;45525;-74
2022/06/05 08:52:16;;;;;;;;;11.00;9.75;;;;;22.88;100.00;101028.94;5090367;27;45481;-72
2022/06/05 08:55:05;;;;;;;;;9.00;9.00;;;;;22.80;99.23;101023.31;5061743;28;45447;-72
2022/06/05 08:57:37;;;;;;;;;7.25;7.00;;;;;22.81;100.00;101033.81;5060512;28;47104;-72
2022/06/05 09:00:13;;;;;;;;;10.75;9.00;;;;;22.69;90.66;101035.56;5061536;28;45584;-69
2022/06/05 09:02:50;;;;;;;;;11.75;9.75;;;;;22.49;98.58;101041.47;5058474;28;45516;-71
2022/06/05 09:05:39;;;;;;;;;10.50;10.00;;;;;22.35;99.37;101037.16;5060575;28;45733;-74
2022/06/05 09:08:18;;;;;;;;;8.25;7.00;;;;;22.32;100.00;101036.53;5060675;28;46467;-69
2022/06/05 09:10:49;;;;;;;;;9.50;9.00;;;;;22.22;97.11;101024.91;5060681;28;45725;-82
2022/06/05 09:13:23;;;;;;;;;8.25;8.25;;;;;22.17;94.89;101028.75;5061889;28;45422;-71
2022/06/05 09:15:59;;;;;;;;;7.25;6.50;;;;;22.09;93.82;101015.22;5061969;28;45324;-69
2022/06/05 09:18:31;;;;;;;;;12.50;8.25;;;;;22.12;95.92;101017.63;5050219;28;46239;-68
2022/06/05 09:21:05;;;;;;;;;9.00;8.00;;;;;22.05;90.64;101024.34;5094433;27;45329;-70
2022/06/05 09:23:44;;;;;;;;;7.25;7.25;;;;;22.05;97.42;101044.66;5061299;28;45536;-67
2022/06/05 09:26:09;;;;;;;;;7.75;7.25;;;;;22.11;99.00;101038.94;5060464;28;45403;-66
2022/06/05 09:28:46;;;;;;;;;8.50;8.00;;;;;22.16;95.23;101042.94;5057288;28;47034;-69
2022/06/05 09:31:20;;;;;;;;;10.25;9.00;;;;;22.27;92.69;101051.94;5060080;28;45305;-70
2022/06/05 09:33:47;;;;;;;;;11.25;8.25;;;;;22.27;96.45;101054.56;5061214;28;45330;-70
2022/06/05 09:36:21;;;;;;;;;8.00;8.00;;;;;22.32;98.83;101053.28;5061237;28;45141;-74
2022/06/05 09:38:54;;;;;;;;;8.00;8.00;;;;;22.38;100.00;101054.63;5059834;28;47379;-70
2022/06/05 09:41:43;;;;;;;;;10.25;10.25;;;;;22.39;99.08;101066.91;5062003;28;45146;-67
2022/06/05 09:44:30;;;;;;;;;9.50;8.25;;;;;22.37;100.00;101074.97;5091635;27;45377;-73
2022/06/05 09:46:58;;;;;;;;;8.25;7.75;;;;;22.39;100.00;101081.00;5061662;28;45637;-76
2022/06/05 09:49:36;;;;;;;;;7.00;6.25;;;;;22.37;100.00;101085.56;5061685;28;45376;-71
2022/06/05 09:52:13;;;;;;;;;8.50;6.50;;;;;22.36;100.00;101080.38;5060892;28;45216;-72
2022/06/05 09:54:47;;;;;;;;;8.50;7.75;;;;;22.37;100.00;101074.97;5061530;28;45367;-74
2022/06/05 10:00:33;;;;;;;;;9.50;8.00;;;;;22.36;98.20;101086.53;5059333;28;45856;-74
2022/06/05 10:03:06;;;;;;;;;10.00;10.00;;;;;22.36;97.75;101075.09;5061640;28;45597;-79
2022/06/05 10:05:35;;;;;;;;;9.00;8.00;;;;;22.40;99.64;101080.03;5061637;28;45288;-76
2022/06/05 10:08:26;;;;;;;;;10.00;10.00;;;;;22.49;98.92;101075.06;5060010;28;45603;-76
2022/06/05 10:10:57;;;;;;;;;12.75;10.00;;;;;22.67;100.00;101089.63;5061039;28;45645;-74
2022/06/05 10:13:51;;;;;;;;;11.50;11.50;;;;;22.70;93.57;101086.75;5057421;28;45533;-76
2022/06/05 10:16:28;;;;;;;;;11.75;11.75;;;;;22.67;97.15;101101.06;5057980;28;45253;-72
2022/06/05 10:19:04;;;;;;;;;13.00;11.25;;;;;22.66;91.06;101103.84;5061127;28;45360;-71
2022/06/05 10:21:41;;;;;;;;;10.75;10.00;;;;;22.68;96.81;101100.13;5060223;28;46099;-72
2022/06/05 10:24:24;;;;;;;;;13.50;12.00;;;;;22.81;86.42;101100.06;5058688;28;45292;-67
2022/06/05 10:26:59;;;;;;;;;13.25;12.00;;;;;22.84;87.92;101101.69;5055053;28;45429;-74
2022/06/05 10:29:32;;;;;;;;;13.50;11.50;;;;;22.83;92.01;101108.81;5059783;28;45384;-74
2022/06/05 10:32:30;;;;;;;;;15.25;11.25;;;;;22.81;93.00;101118.59;5060312;28;46261;-58
2022/06/05 10:35:10;;;;;;;;;16.00;13.25;;;;;22.75;93.48;101119.91;5051889;28;45278;-63
2022/06/05 10:37:53;;;;;;;;;15.25;12.00;;;;;22.68;87.83;101123.13;5060299;28;45241;-60
2022/06/05 10:40:41;;;;;;;;;13.25;13.00;;;;;22.55;89.76;101117.84;5060498;28;45361;-59
2022/06/05 10:43:25;;;;;;;;;11.50;11.50;;;;;22.70;90.40;101121.19;5059339;28;45410;-59
2022/06/05 10:46:08;;;;;;;;;12.25;12.25;;;;;22.80;80.96;101113.41;5058084;28;45258;-60
2022/06/05 10:48:56;;;;;;;;;16.50;14.50;;;;;22.78;80.41;101111.72;5049082;28;45374;-58
2022/06/05 10:51:24;;;;;;;;;12.75;12.75;;;;;22.84;88.26;101112.28;5055736;28;45372;-57
2022/06/05 10:54:05;;;;;;;;;13.00;12.75;;;;;22.95;89.70;101122.94;5060362;28;46449;-57
2022/06/05 10:56:57;;;;;;;;;17.25;15.00;;;;;22.97;86.34;101121.88;5052594;28;45530;-57
2022/06/05 11:00:08;;;;;;;;;15.25;14.75;;;;;23.01;85.01;101122.47;5060509;28;45431;-58
2022/06/05 11:02:36;;;;;;;;;38.50;31.00;;;;;22.84;79.77;101121.09;5052288;28;45407;-57
2022/06/05 11:05:21;;;;;;;;;51.25;42.00;;;;;22.83;86.52;101130.00;5056653;28;46248;-57
2022/06/05 11:08:05;;;;;;;;;14.00;14.00;;;;;22.78;88.19;101127.63;5055890;28;45639;-72
2022/06/05 11:14:26;;;;;;;;;15.50;14.25;;;;;22.83;86.84;101121.22;5060525;28;45359;-69
2022/06/05 11:17:02;;;;;;;;;16.75;16.75;;;;;22.94;84.08;101121.25;5050988;28;45505;-67
2022/06/05 11:19:50;;;;;;;;;16.25;14.75;;;;;22.93;83.36;101131.00;5059848;28;45269;-71
2022/06/05 11:22:18;;;;;;;;;18.75;16.00;;;;;22.84;80.58;101133.50;5059431;28;45335;-68
2022/06/05 11:24:46;;;;;;;;;15.50;14.75;;;;;22.79;87.36;101131.13;5059649;28;45216;-69
2022/06/05 11:27:30;;;;;;;;;16.25;14.00;;;;;22.73;86.72;101132.41;5059834;28;45530;-74
2022/06/05 11:30:10;;;;;;;;;15.75;14.75;;;;;22.70;84.85;101131.81;5050455;28;45347;-74
2022/06/05 11:32:47;;;;;;;;;17.25;14.25;;;;;22.60;81.18;101136.91;5058377;28;45245;-72
2022/06/05 11:35:25;;;;;;;;;15.00;14.50;;;;;22.56;83.93;101129.28;5058521;28;46417;-71
2022/06/05 11:37:54;;;;;;;;;10.25;9.00;;;;;22.59;82.48;101137.00;5059429;28;45424;-70
2022/06/05 11:40:44;;;;;;;;;16.50;15.25;;;;;22.50;81.23;101132.38;5091058;27;45793;-73